.
WxDataArchive / Data Records for 2014-05-17
2014-05-16 May 2014 2014-05-18

Data Records for Saturday, 17 May 2014

Time	Temp	Chill	HIndex	Humid	Dewpt	 Wind 	HiWind	WindDir	Rain 	Barom
-----	----	-----	------	-----	-----	------	------	-------	-----	-----
00:00	45.7	45.7	45.7	78	39.2	0	1	292	0.00	30.029 
00:05	45.5	45.5	45.5	77	38.7	0	2	292	0.00	30.029 
00:10	45.4	45.4	45.4	77	38.6	0	2	292	0.00	30.029 
00:15	45.4	45.4	45.4	76	38.3	0	2	292	0.00	30.032 
00:20	45.2	45.2	45.2	75	37.8	0	1	292	0.00	30.032 
00:25	45.2	45.2	45.2	75	37.8	0	1	292	0.00	30.032 
00:30	45.2	45.2	45.2	75	37.8	0	1	292	0.00	30.035 
00:35	45.2	45.2	45.2	77	38.4	0	2	292	0.00	30.035 
00:40	45.1	45.1	45.1	77	38.3	0	1	292	0.00	30.035 
00:45	45.1	45.1	45.1	78	38.7	0	1	292	0.00	30.039 
00:50	44.9	44.9	44.9	78	38.5	0	1	292	0.00	30.039 
00:55	44.8	44.8	44.8	78	38.4	0	1	292	0.00	30.039 
01:00	44.8	44.8	44.8	78	38.4	0	1	292	0.00	30.042 
01:05	44.6	44.6	44.6	78	38.2	0	1	292	0.00	30.042 
01:10	44.6	44.6	44.6	77	37.8	0	1	292	0.00	30.042 
01:15	44.6	44.6	44.6	78	38.2	0	1	292	0.00	30.037 
01:20	44.5	44.5	44.5	78	38.1	0	1	292	0.00	30.037 
01:25	44.5	44.5	44.5	78	38.1	0	2	292	0.00	30.037 
01:30	44.3	44.3	44.3	78	37.9	0	2	292	0.00	30.035 
01:35	44.2	44.2	44.2	78	37.8	0	1	292	0.00	30.035 
01:40	44.2	44.2	44.2	78	37.8	0	1	292	0.00	30.035 
01:45	44.2	44.2	44.2	78	37.8	0	2	292	0.00	30.036 
01:50	44.1	44.1	44.1	79	38.0	0	1	292	0.00	30.036 
01:55	44.1	44.1	44.1	79	38.0	0	1	292	0.00	30.036 
02:00	44.1	44.1	44.1	79	38.0	0	1	292	0.00	30.031 
02:05	44.1	44.1	44.1	80	38.3	0	1	292	0.00	30.031 
02:10	43.9	43.9	43.9	80	38.1	0	1	292	0.00	30.031 
02:15	43.9	43.9	43.9	80	38.1	0	2	292	0.00	30.027 
02:20	43.8	43.8	43.8	80	38.0	0	2	292	0.00	30.027 
02:25	43.8	43.8	43.8	80	38.0	0	2	292	0.00	30.027 
02:30	43.8	43.8	43.8	80	38.0	0	2	292	0.00	30.029 
02:35	43.8	43.8	43.8	79	37.7	0	3	292	0.00	30.029 
02:40	43.6	43.6	43.6	79	37.5	0	1	292	0.00	30.029 
02:45	43.6	43.6	43.6	79	37.5	0	3	292	0.00	30.031 
02:50	43.5	43.5	43.5	79	37.4	0	2	292	0.00	30.031 
02:55	43.5	43.5	43.5	79	37.4	0	1	292	0.00	30.031 
03:00	43.3	43.3	43.3	79	37.2	0	2	292	0.00	30.029 
03:05	43.2	43.2	43.2	80	37.5	0	3	292	0.00	30.029 
03:10	43.1	43.1	43.1	80	37.4	0	3	292	0.00	30.029 
03:15	43.1	43.1	43.1	80	37.4	0	2	315	0.00	30.023 
03:20	42.9	42.9	42.9	80	37.2	0	2	315	0.00	30.023 
03:25	42.8	42.8	42.8	81	37.4	0	3	315	0.00	30.023 
03:30	42.6	42.6	42.6	81	37.2	1	4	292	0.00	30.025 
03:35	42.5	42.5	42.5	80	36.8	0	3	292	0.00	30.025 
03:40	42.3	42.3	42.3	80	36.6	0	2	292	0.00	30.025 
03:45	42.2	42.2	42.2	80	36.5	0	0	---	0.00	30.025 
03:50	42.1	42.1	42.1	80	36.4	0	0	---	0.00	30.025 
03:55	41.8	41.8	41.8	81	36.4	0	0	---	0.00	30.025 
04:00	41.8	41.8	41.8	81	36.4	0	0	---	0.00	30.027 
04:05	41.6	41.6	41.6	82	36.5	0	0	---	0.00	30.027 
04:10	41.6	41.6	41.6	82	36.5	0	0	---	0.00	30.027 
04:15	41.6	41.6	41.6	82	36.5	0	0	---	0.00	30.029 
04:20	41.6	41.6	41.6	83	36.8	0	0	---	0.00	30.029 
04:25	41.8	41.8	41.8	83	37.0	0	0	---	0.00	30.029 
04:30	41.8	41.8	41.8	83	37.0	0	0	---	0.00	30.029 
04:35	41.8	41.8	41.8	83	37.0	0	0	---	0.00	30.029 
04:40	41.9	41.9	41.9	83	37.1	0	0	---	0.00	30.029 
04:45	41.9	41.9	41.9	83	37.1	0	0	---	0.00	30.029 
04:50	41.9	41.9	41.9	83	37.1	0	0	---	0.00	30.029 
04:55	41.9	41.9	41.9	83	37.1	0	0	---	0.00	30.029 
05:00	41.9	41.9	41.9	83	37.1	0	0	---	0.00	30.032 
05:05	41.9	41.9	41.9	83	37.1	0	0	---	0.00	30.032 
05:10	41.9	41.9	41.9	83	37.1	0	0	---	0.00	30.032 
05:15	41.9	41.9	41.9	83	37.1	0	0	---	0.00	30.039 
05:20	41.9	41.9	41.9	83	37.1	0	1	292	0.00	30.039 
05:25	41.9	41.9	41.9	83	37.1	0	1	292	0.00	30.039 
05:30	41.9	41.9	41.9	83	37.1	0	1	292	0.00	30.044 
05:35	41.9	41.9	41.9	83	37.1	0	0	---	0.00	30.044 
05:40	42.1	42.1	42.1	83	37.3	0	1	292	0.00	30.044 
05:45	42.1	42.1	42.1	83	37.3	0	1	292	0.00	30.049 
05:50	42.1	42.1	42.1	83	37.3	0	1	292	0.00	30.049 
05:55	42.1	42.1	42.1	84	37.6	0	1	292	0.00	30.049 
06:00	42.1	42.1	42.1	84	37.6	0	1	292	0.00	30.052 
06:05	41.9	41.9	41.9	84	37.4	0	1	292	0.00	30.052 
06:10	41.9	41.9	41.9	84	37.4	0	1	292	0.00	30.052 
06:15	41.8	41.8	41.8	84	37.3	0	2	292	0.00	30.057 
06:20	41.6	41.6	41.6	84	37.1	0	3	292	0.00	30.057 
06:25	41.6	41.6	41.6	85	37.4	0	3	292	0.00	30.057 
06:30	41.5	41.5	41.5	85	37.3	0	1	292	0.00	30.062 
06:35	41.5	41.5	41.5	85	37.3	0	3	292	0.00	30.062 
06:40	41.3	41.3	41.3	85	37.1	0	2	292	0.00	30.062 
06:45	41.2	41.2	41.2	85	37.0	0	1	292	0.00	30.071 
06:50	41.2	41.2	41.2	85	37.0	0	1	292	0.00	30.071 
06:55	41.1	41.1	41.1	85	36.9	0	2	292	0.00	30.071 
07:00	40.9	40.9	40.9	85	36.7	0	2	292	0.00	30.078 
07:05	40.9	40.9	40.9	85	36.7	0	2	292	0.00	30.078 
07:10	40.9	40.9	40.9	84	36.4	0	3	292	0.00	30.078 
07:15	41.1	41.1	41.1	84	36.6	0	1	292	0.00	30.083 
07:20	41.2	41.2	41.2	84	36.7	0	1	292	0.00	30.083 
07:25	41.2	41.2	41.2	84	36.7	0	2	292	0.00	30.083 
07:30	41.2	41.2	41.2	84	36.7	0	3	292	0.00	30.090 
07:35	41.2	41.2	41.2	83	36.4	0	1	292	0.00	30.090 
07:40	41.3	41.3	41.3	83	36.5	0	2	292	0.00	30.090 
07:45	41.3	41.3	41.3	82	36.2	1	2	292	0.00	30.094 
07:50	41.3	41.3	41.3	81	35.9	1	3	292	0.00	30.094 
07:55	41.5	41.5	41.5	81	36.1	1	3	292	0.00	30.094 
08:00	41.5	41.5	41.5	80	35.8	0	3	292	0.00	30.098 
08:05	41.6	41.6	41.6	80	35.9	0	3	292	0.00	30.098 
08:10	41.8	41.8	41.8	79	35.8	1	3	292	0.00	30.098 
08:15	42.1	42.1	42.1	77	35.4	1	3	292	0.00	30.106 
08:20	42.3	42.3	42.3	76	35.3	0	2	292	0.00	30.106 
08:25	42.5	42.5	42.5	74	34.8	1	3	292	0.00	30.106 
08:30	42.8	42.8	42.8	73	34.8	1	4	292	0.00	30.108 
08:35	42.8	42.8	42.8	69	33.3	1	4	292	0.00	30.108 
08:40	42.6	42.6	42.6	67	32.4	1	4	292	0.00	30.108 
08:45	42.8	42.8	42.8	69	33.3	0	2	292	0.00	30.109 
08:50	42.9	42.9	42.9	70	33.8	0	2	292	0.00	30.109 
08:55	43.1	43.1	43.1	69	33.6	0	2	292	0.00	30.109 
09:00	43.2	43.2	43.2	67	33.0	1	2	292	0.00	30.112 
09:05	43.3	43.3	43.3	67	33.1	1	4	292	0.00	30.112 
09:10	43.3	43.3	43.3	66	32.7	1	2	292	0.00	30.112 
09:15	43.3	43.3	43.3	65	32.3	1	3	292	0.00	30.123 
09:20	43.5	43.5	43.5	65	32.5	1	4	292	0.00	30.123 
09:25	43.6	43.6	43.6	65	32.6	1	3	292	0.00	30.123 
09:30	43.8	43.8	43.8	63	32.0	1	3	292	0.00	30.123 
09:35	44.1	44.1	44.1	64	32.7	1	3	292	0.00	30.123 
09:40	44.3	44.3	44.3	63	32.5	1	3	292	0.00	30.123 
09:45	44.8	44.8	44.8	62	32.6	1	3	292	0.00	30.123 
09:50	45.2	45.2	45.2	62	33.0	1	2	292	0.00	30.123 
09:55	45.7	45.7	45.7	61	33.0	1	3	292	0.00	30.123 
10:00	46.1	46.1	46.1	61	33.4	1	4	292	0.00	30.124 
10:05	46.4	46.4	46.4	60	33.3	1	3	292	0.00	30.124 
10:10	46.5	46.5	46.5	58	32.5	1	3	292	0.00	30.124 
10:15	46.7	46.7	46.7	56	31.8	1	4	292	0.00	30.126 
10:20	47.6	47.6	47.6	59	34.0	1	3	292	0.00	30.126 
10:25	48.3	48.3	48.3	55	32.9	1	6	292	0.00	30.126 
10:30	48.5	48.5	48.5	53	32.2	2	6	338	0.00	30.126 
10:35	48.8	48.8	48.8	53	32.4	2	4	315	0.00	30.126 
10:40	48.9	48.9	48.9	50	31.1	1	4	315	0.00	30.126 
10:45	49.4	49.4	49.4	54	33.5	1	4	315	0.00	30.130 
10:50	49.4	49.4	49.4	49	31.0	2	4	292	0.00	30.130 
10:55	49.5	49.5	49.5	50	31.6	2	4	315	0.00	30.130 
11:00	49.5	49.5	49.5	50	31.6	2	4	315	0.00	30.129 
11:05	49.5	49.5	49.5	49	31.1	2	4	338	0.00	30.129 
11:10	49.8	49.8	49.8	50	31.9	1	3	315	0.00	30.129 
11:15	49.8	49.8	49.8	50	31.9	1	5	315	0.00	30.134 
11:20	50.1	50.1	50.1	51	32.7	2	4	315	0.00	30.134 
11:25	50.7	50.7	50.7	54	34.7	1	5	292	0.00	30.134 
11:30	51.0	51.0	51.0	51	33.5	1	4	292	0.00	30.134 
11:35	51.3	51.3	51.3	54	35.2	1	4	292	0.00	30.134 
11:40	51.4	51.4	51.4	52	34.4	1	3	292	0.00	30.134 
11:45	51.6	51.6	51.6	53	35.0	1	4	292	0.00	30.135 
11:50	51.4	51.4	51.4	50	33.4	1	4	292	0.00	30.135 
11:55	51.0	51.0	51.0	50	33.0	2	4	292	0.00	30.135 
12:00	50.5	50.5	50.5	51	33.1	2	3	292	0.00	30.136 
12:05	50.4	50.4	50.4	52	33.4	1	3	292	0.00	30.136 
12:10	50.2	50.2	50.2	52	33.3	1	4	292	0.00	30.136 
12:15	50.4	50.4	50.4	55	34.8	1	3	292	0.00	30.139 
12:20	50.5	50.5	50.5	55	34.9	2	3	292	0.00	30.139 
12:25	51.6	51.6	51.6	56	36.4	2	6	292	0.00	30.139 
12:30	52.0	52.0	52.0	52	34.9	1	3	315	0.00	30.136 
12:35	51.6	51.6	51.6	52	34.6	1	3	315	0.00	30.136 
12:40	50.8	50.8	50.8	54	34.8	2	4	315	0.00	30.136 
12:45	50.1	50.1	50.1	60	36.8	1	4	292	0.00	30.140 
12:50	49.6	49.6	49.6	62	37.1	0	2	292	0.00	30.140 
12:55	49.2	49.2	49.2	63	37.1	0	3	292	0.00	30.140 
13:00	48.8	48.8	48.8	56	33.8	1	3	292	0.00	30.141 
13:05	48.8	48.8	48.8	57	34.3	0	1	292	0.00	30.141 
13:10	49.1	49.1	49.1	56	34.1	0	2	292	0.00	30.141 
13:15	49.8	49.8	49.8	58	35.6	0	2	292	0.00	30.138 
13:20	50.4	50.4	50.4	58	36.2	0	1	292	0.00	30.138 
13:25	51.7	51.7	51.7	60	38.3	0	3	22	0.00	30.138 
13:30	52.8	52.8	52.8	51	35.2	1	4	22	0.00	30.135 
13:35	53.6	53.6	53.6	50	35.4	0	3	90	0.00	30.135 
13:40	54.4	54.4	54.4	53	37.6	0	2	90	0.00	30.135 
13:45	55.0	55.0	55.0	53	38.2	1	5	90	0.00	30.123 
13:50	55.3	55.3	55.3	42	32.6	1	2	90	0.00	30.123 
13:55	55.9	55.9	55.9	43	33.7	1	2	90	0.00	30.123 
14:00	55.6	55.6	55.6	41	32.3	2	5	90	0.00	30.119 
14:05	55.0	55.0	55.0	42	32.3	1	3	315	0.00	30.119 
14:10	54.7	54.7	54.7	38	29.6	1	3	315	0.00	30.119 
14:15	55.4	55.4	55.4	44	33.9	1	4	315	0.00	30.122 
14:20	56.0	56.0	56.0	41	32.6	1	3	292	0.00	30.122 
14:25	56.5	56.5	56.5	39	31.8	0	3	292	0.00	30.122 
14:30	55.7	55.7	55.7	40	31.8	2	4	292	0.00	30.123 
14:35	54.7	54.7	54.7	39	30.2	2	7	338	0.00	30.123 
14:40	54.1	54.1	54.1	38	29.1	3	6	292	0.00	30.123 
14:45	53.8	53.8	53.8	40	30.1	2	4	292	0.00	30.132 
14:50	53.6	53.6	53.6	41	30.5	2	6	292	0.00	30.132 
14:55	53.3	53.3	53.3	44	31.9	1	6	292	0.00	30.132 
15:00	53.5	53.5	53.5	52	36.3	2	6	248	0.00	30.143 
15:05	52.9	52.9	52.9	52	35.8	2	5	248	0.00	30.143 
15:10	52.3	52.3	52.3	54	36.2	2	4	248	0.00	30.143 
15:15	52.0	52.0	52.0	56	36.8	1	5	270	0.00	30.150 
15:20	52.5	52.5	52.5	56	37.3	1	4	270	0.00	30.150 
15:25	52.5	52.5	52.5	57	37.7	0	3	270	0.00	30.150 
15:30	52.3	52.3	52.3	57	37.5	1	3	270	0.00	30.153 
15:35	52.2	52.2	52.2	57	37.4	1	5	270	0.00	30.153 
15:40	52.2	52.2	52.2	56	37.0	1	6	270	0.00	30.153 
15:45	51.9	51.9	51.9	49	33.3	3	5	270	0.00	30.153 
15:50	51.9	51.9	51.9	49	33.3	2	5	292	0.00	30.153 
15:55	53.2	53.2	53.2	48	34.0	3	7	292	0.00	30.153 
16:00	53.8	53.8	53.8	47	34.0	3	6	292	0.00	30.150 
16:05	53.6	53.6	53.6	44	32.2	3	9	292	0.00	30.150 
16:10	53.9	53.9	53.9	46	33.6	3	6	292	0.00	30.150 
16:15	53.5	53.5	53.5	47	33.8	2	5	315	0.00	30.150 
16:20	53.8	53.8	53.8	48	34.6	1	4	315	0.00	30.150 
16:25	54.1	54.1	54.1	47	34.3	2	4	292	0.00	30.150 
16:30	54.7	54.7	54.7	49	35.9	2	4	292	0.00	30.146 
16:35	54.1	54.1	54.1	49	35.4	2	5	292	0.00	30.146 
16:40	53.5	53.5	53.5	49	34.8	1	3	292	0.00	30.146 
16:45	53.2	53.2	53.2	50	35.0	1	4	292	0.00	30.150 
16:50	53.3	53.3	53.3	47	33.6	2	4	292	0.00	30.150 
16:55	53.8	53.8	53.8	42	31.3	2	4	292	0.00	30.150 
17:00	53.3	53.3	53.3	43	31.4	2	4	315	0.00	30.142 
17:05	52.9	52.9	52.9	46	32.7	2	4	292	0.00	30.142 
17:10	52.8	52.8	52.8	46	32.6	1	5	292	0.00	30.142 
17:15	52.9	52.9	52.9	45	32.1	2	4	315	0.00	30.150 
17:20	53.6	53.6	53.6	46	33.3	2	5	292	0.00	30.150 
17:25	54.1	54.1	54.1	44	32.7	3	6	338	0.00	30.150 
17:30	53.8	53.8	53.8	43	31.8	1	5	270	0.00	30.151 
17:35	53.3	53.3	53.3	47	33.6	1	2	270	0.00	30.151 
17:40	53.2	53.2	53.2	47	33.5	1	2	270	0.00	30.151 
17:45	53.3	53.3	53.3	46	33.1	1	2	270	0.00	30.153 
17:50	53.5	53.5	53.5	46	33.2	1	3	292	0.00	30.153 
17:55	53.6	53.6	53.6	45	32.8	0	2	292	0.00	30.153 
18:00	53.5	53.5	53.5	45	32.7	1	3	292	0.00	30.152 
18:05	53.8	53.8	53.8	46	33.5	0	2	292	0.00	30.152 
18:10	54.4	54.4	54.4	43	32.4	1	2	292	0.00	30.152 
18:15	54.8	54.8	54.8	47	35.0	1	3	292	0.00	30.153 
18:20	54.8	54.8	54.8	46	34.4	2	5	292	0.00	30.153 
18:25	54.5	54.5	54.5	47	34.7	1	3	270	0.00	30.153 
18:30	54.4	54.4	54.4	47	34.6	0	2	270	0.00	30.153 
18:35	54.2	54.2	54.2	46	33.9	0	2	270	0.00	30.153 
18:40	53.9	53.9	53.9	46	33.6	0	1	270	0.00	30.153 
18:45	53.5	53.5	53.5	46	33.2	0	1	270	0.00	30.156 
18:50	53.2	53.2	53.2	47	33.5	0	2	270	0.00	30.156 
18:55	52.9	52.9	52.9	46	32.7	0	1	270	0.00	30.156 
19:00	52.5	52.5	52.5	47	32.9	1	2	270	0.00	30.159 
19:05	52.2	52.2	52.2	48	33.1	0	1	270	0.00	30.159 
19:10	52.0	52.0	52.0	48	32.9	0	2	270	0.00	30.159 
19:15	51.9	51.9	51.9	50	33.9	0	3	270	0.00	30.160 
19:20	51.7	51.7	51.7	49	33.2	2	5	270	0.00	30.160 
19:25	51.6	51.6	51.6	47	32.0	1	3	270	0.00	30.160 
19:30	51.9	51.9	51.9	50	33.9	1	4	270	0.00	30.155 
19:35	52.3	52.3	52.3	45	31.6	1	3	270	0.00	30.155 
19:40	52.6	52.6	52.6	43	30.7	1	2	270	0.00	30.155 
19:45	52.9	52.9	52.9	43	31.0	1	3	270	0.00	30.159 
19:50	52.9	52.9	52.9	43	31.0	1	2	270	0.00	30.159 
19:55	52.9	52.9	52.9	45	32.1	0	1	270	0.00	30.159 
20:00	52.9	52.9	52.9	47	33.2	0	1	270	0.00	30.161 
20:05	52.8	52.8	52.8	48	33.7	0	0	---	0.00	30.161 
20:10	52.3	52.3	52.3	49	33.7	0	1	270	0.00	30.161 
20:15	52.0	52.0	52.0	50	33.9	0	1	270	0.00	30.164 
20:20	51.7	51.7	51.7	50	33.7	0	1	270	0.00	30.164 
20:25	51.6	51.6	51.6	50	33.6	0	0	---	0.00	30.164 
20:30	51.3	51.3	51.3	52	34.3	0	0	---	0.00	30.167 
20:35	51.0	51.0	51.0	53	34.5	0	0	---	0.00	30.167 
20:40	50.7	50.7	50.7	54	34.7	0	0	---	0.00	30.167 
20:45	50.4	50.4	50.4	54	34.4	0	0	---	0.00	30.172 
20:50	50.1	50.1	50.1	54	34.1	0	0	---	0.00	30.172 
20:55	49.8	49.8	49.8	55	34.3	0	0	---	0.00	30.172 
21:00	49.4	49.4	49.4	56	34.4	0	0	---	0.00	30.177 
21:05	48.9	48.9	48.9	57	34.3	0	0	---	0.00	30.177 
21:10	48.6	48.6	48.6	58	34.5	0	0	---	0.00	30.177 
21:15	48.2	48.2	48.2	58	34.1	0	0	---	0.00	30.180 
21:20	47.9	47.9	47.9	60	34.7	0	0	---	0.00	30.180 
21:25	47.6	47.6	47.6	61	34.8	0	0	---	0.00	30.180 
21:30	47.3	47.3	47.3	62	34.9	0	0	---	0.00	30.185 
21:35	46.8	46.8	46.8	63	34.9	0	0	---	0.00	30.185 
21:40	46.5	46.5	46.5	63	34.6	0	0	---	0.00	30.185 
21:45	46.2	46.2	46.2	64	34.7	0	0	---	0.00	30.188 
21:50	46.0	46.0	46.0	65	34.9	0	0	---	0.00	30.188 
21:55	45.7	45.7	45.7	66	35.0	0	0	---	0.00	30.188 
22:00	45.4	45.4	45.4	67	35.1	0	0	---	0.00	30.199 
22:05	45.1	45.1	45.1	68	35.2	0	0	---	0.00	30.199 
22:10	44.9	44.9	44.9	69	35.4	0	0	---	0.00	30.199 
22:15	44.9	44.9	44.9	70	35.7	0	1	270	0.00	30.199 
22:20	45.1	45.1	45.1	70	35.9	0	0	---	0.00	30.199 
22:25	45.1	45.1	45.1	70	35.9	0	0	---	0.00	30.199 
22:30	45.4	45.4	45.4	69	35.8	0	0	---	0.00	30.201 
22:35	45.5	45.5	45.5	70	36.3	0	0	---	0.00	30.201 
22:40	45.7	45.7	45.7	70	36.5	0	0	---	0.00	30.201 
22:45	45.7	45.7	45.7	70	36.5	0	0	---	0.00	30.201 
22:50	45.7	45.7	45.7	71	36.8	0	1	270	0.00	30.201 
22:55	45.5	45.5	45.5	72	37.0	0	0	---	0.00	30.201 
23:00	45.5	45.5	45.5	73	37.4	0	0	---	0.00	30.207 
23:05	45.4	45.4	45.4	74	37.6	0	0	---	0.00	30.207 
23:10	45.4	45.4	45.4	74	37.6	0	0	---	0.00	30.207 
23:15	45.4	45.4	45.4	75	37.9	0	0	---	0.00	30.208 
23:20	45.2	45.2	45.2	76	38.1	0	0	---	0.00	30.208 
23:25	45.2	45.2	45.2	76	38.1	0	0	---	0.00	30.208 
23:30	45.2	45.2	45.2	76	38.1	0	0	---	0.00	30.211 
23:35	45.1	45.1	45.1	77	38.3	0	0	---	0.00	30.211 
23:40	45.1	45.1	45.1	77	38.3	0	0	---	0.00	30.211 
23:45	44.9	44.9	44.9	77	38.1	0	0	---	0.00	30.213 
23:50	44.9	44.9	44.9	78	38.5	0	0	---	0.00	30.213 
23:55	44.8	44.8	44.8	78	38.4	0	0	---	0.00	30.213 

CoCoRaHS
IN-AL-39
A2 Web Hosting
Creative Commons License
GoDaddy
search engine by freefind advanced

loaded 2018-11-17 05:45:57 • last modified 2010-11-18 10:43:29
Privacy PolicyDisclaimer
• wx.awcolley.com is powered by PmWiki v.2002016 •
• all content (unless otherwise noted) © 2018 A W Colley